createdAt,value
2022-09-11T00:04:59.141Z,0.70
2022-09-11T00:10:02.312Z,0.70
2022-09-11T00:15:07.974Z,0.80
2022-09-11T00:20:11.528Z,0.60
2022-09-11T00:25:14.613Z,0.80
2022-09-11T00:30:19.430Z,1.30
2022-09-11T00:35:22.608Z,0.70
2022-09-11T00:40:26.391Z,0.63
2022-09-11T00:45:32.331Z,0.85
2022-09-11T00:50:35.841Z,0.93
2022-09-11T00:55:42.193Z,0.80
2022-09-11T01:00:47.000Z,0.80
2022-09-11T01:05:50.781Z,0.70
2022-09-11T01:11:05.583Z,0.80
2022-09-11T01:16:20.643Z,1.00
2022-09-11T01:22:03.235Z,0.80
2022-09-11T01:27:42.024Z,1.23
2022-09-11T01:33:03.887Z,0.70
2022-09-11T01:38:14.871Z,0.90
2022-09-11T01:43:26.789Z,0.95
2022-09-11T01:48:33.039Z,0.80
2022-09-11T01:53:41.371Z,0.70
2022-09-11T01:58:48.082Z,0.93
2022-09-11T02:03:55.790Z,0.82
2022-09-11T02:09:01.728Z,0.82
2022-09-11T02:14:10.890Z,0.77
2022-09-11T02:19:16.685Z,0.70
2022-09-11T02:24:21.201Z,0.80
2022-09-11T02:29:26.734Z,1.00
2022-09-11T02:34:34.296Z,1.50
2022-09-11T02:39:57.145Z,0.80
2022-09-11T02:45:13.488Z,1.17
2022-09-11T02:50:28.209Z,1.20
2022-09-11T02:55:41.707Z,1.13
2022-09-11T03:00:48.141Z,1.33
2022-09-11T03:05:51.313Z,1.10
2022-09-11T03:10:56.145Z,1.35
2022-09-11T03:16:01.886Z,1.50
2022-09-11T03:21:05.887Z,1.30
2022-09-11T03:26:09.140Z,1.50
2022-09-11T03:31:13.998Z,1.00
2022-09-11T03:36:17.257Z,1.52
2022-09-11T03:41:20.866Z,1.40
2022-09-11T03:46:25.654Z,1.45
2022-09-11T03:51:31.302Z,1.67
2022-09-11T03:56:34.519Z,1.05
2022-09-11T04:01:39.192Z,1.48
2022-09-11T04:06:42.304Z,1.60
2022-09-11T04:11:45.434Z,1.27
2022-09-11T04:16:50.221Z,1.40
2022-09-11T04:21:53.277Z,1.13
2022-09-11T04:27:00.596Z,1.23
2022-09-11T04:32:06.038Z,1.23
2022-09-11T04:37:09.454Z,1.23
2022-09-11T04:42:12.539Z,1.30
2022-09-11T04:47:18.610Z,1.48
2022-09-11T04:52:21.897Z,1.45
2022-09-11T04:57:25.199Z,1.27
2022-09-11T05:02:29.890Z,1.10
2022-09-11T05:07:33.206Z,1.38
2022-09-11T05:12:36.297Z,1.20
2022-09-11T05:17:40.864Z,1.30
2022-09-11T05:22:44.209Z,1.52
2022-09-11T05:27:47.599Z,1.60
2022-09-11T05:32:55.684Z,1.30
2022-09-11T05:37:58.850Z,1.58
2022-09-11T05:43:02.894Z,1.90
2022-09-11T05:48:07.674Z,1.20
2022-09-11T05:53:10.797Z,1.30
2022-09-11T05:58:13.951Z,1.33
2022-09-11T06:03:19.883Z,1.30
2022-09-11T06:08:26.993Z,1.48
2022-09-11T06:13:31.924Z,1.27
2022-09-11T06:18:36.353Z,1.10
2022-09-11T06:23:40.227Z,1.20
2022-09-11T06:28:43.686Z,1.50
2022-09-11T06:33:48.933Z,1.13
2022-09-11T06:38:54.961Z,0.95
2022-09-11T06:43:58.162Z,0.80
2022-09-11T06:49:02.846Z,0.82
2022-09-11T06:54:06.112Z,1.02
2022-09-11T06:59:10.198Z,0.95
2022-09-11T07:04:14.633Z,0.82
2022-09-11T07:09:21.561Z,0.68
2022-09-11T07:14:29.596Z,0.70
2022-09-11T07:19:34.058Z,0.70
2022-09-11T07:24:37.299Z,0.75
2022-09-11T07:29:40.366Z,0.70
2022-09-11T07:34:45.264Z,0.70
2022-09-11T07:39:48.472Z,0.90
2022-09-11T07:44:51.861Z,0.73
2022-09-11T07:49:57.376Z,0.70
2022-09-11T07:55:01.458Z,0.57
2022-09-11T08:00:06.780Z,0.50
2022-09-11T08:05:12.529Z,0.70
2022-09-11T08:10:27.210Z,0.60
2022-09-11T08:15:31.246Z,0.40
2022-09-11T08:20:35.661Z,0.40
2022-09-11T08:25:39.262Z,0.50
2022-09-11T08:30:42.376Z,0.70
2022-09-11T08:35:46.916Z,0.40
2022-09-11T08:40:50.164Z,0.70
2022-09-11T08:45:57.156Z,0.38
2022-09-11T08:51:01.791Z,0.50
2022-09-11T08:56:10.369Z,0.63
2022-09-11T09:01:24.891Z,0.50
2022-09-11T09:06:45.208Z,0.90
2022-09-11T09:11:56.028Z,0.60
2022-09-11T09:17:03.101Z,0.60
2022-09-11T09:22:18.881Z,0.65
2022-09-11T09:27:28.370Z,0.70
2022-09-11T09:32:35.077Z,0.70
2022-09-11T09:37:40.179Z,0.70
2022-09-11T09:43:05.388Z,0.90
2022-09-11T09:48:11.671Z,0.90
2022-09-11T09:53:30.517Z,0.90
2022-09-11T09:58:37.764Z,0.70
2022-09-11T10:03:40.948Z,0.80
2022-09-11T10:08:45.547Z,1.27
2022-09-11T10:13:55.279Z,1.70
2022-09-11T10:18:58.444Z,1.20
2022-09-11T10:29:50.435Z,1.13
2022-09-11T10:34:54.581Z,1.50
2022-09-11T10:40:08.642Z,1.40
2022-09-11T10:45:23.493Z,1.17
2022-09-11T10:50:28.903Z,1.20
2022-09-11T10:55:40.631Z,1.58
2022-09-11T11:00:45.094Z,1.40
2022-09-11T11:06:00.722Z,2.47
2022-09-11T11:11:24.367Z,1.63
2022-09-11T11:16:39.662Z,1.88
2022-09-11T11:21:53.124Z,1.90
2022-09-11T11:27:11.182Z,1.70
2022-09-11T11:32:49.635Z,1.83
2022-09-11T11:38:01.702Z,1.77
2022-09-11T11:43:11.183Z,1.80
2022-09-11T11:48:25.541Z,1.77
2022-09-11T11:53:33.967Z,1.90
2022-09-11T11:58:48.459Z,1.50
2022-09-11T12:03:59.690Z,1.65
2022-09-11T12:09:04.072Z,2.05
2022-09-11T12:14:26.280Z,1.88
2022-09-11T12:19:29.390Z,1.90
2022-09-11T12:24:59.331Z,2.33
2022-09-11T12:30:21.276Z,1.80
2022-09-11T12:35:34.932Z,1.90
2022-09-11T12:40:48.059Z,1.75
2022-09-11T12:45:52.674Z,1.88
2022-09-11T12:50:58.051Z,2.22
2022-09-11T12:56:04.724Z,2.10
2022-09-11T13:01:21.390Z,1.70
2022-09-11T13:06:27.617Z,2.40
2022-09-11T13:11:52.852Z,2.38
2022-09-11T13:16:58.937Z,2.20
2022-09-11T13:22:02.043Z,2.17
2022-09-11T13:27:08.792Z,2.47
2022-09-11T13:32:17.992Z,2.58
2022-09-11T13:37:32.370Z,2.10
2022-09-11T13:42:37.986Z,2.10
2022-09-11T13:47:43.274Z,1.98
2022-09-11T13:52:47.740Z,1.75
2022-09-11T13:57:58.724Z,1.95
2022-09-11T14:03:03.417Z,2.28
2022-09-11T14:08:24.510Z,2.28
2022-09-11T14:13:34.191Z,1.92
2022-09-11T14:18:43.351Z,1.70
2022-09-11T14:23:49.079Z,1.95
2022-09-11T14:29:03.946Z,2.20
2022-09-11T14:34:20.851Z,2.00
2022-09-11T14:39:30.487Z,2.10
2022-09-11T14:44:37.865Z,1.88
2022-09-11T14:49:42.302Z,2.10
2022-09-11T14:54:46.578Z,1.83
2022-09-11T14:59:50.611Z,2.15
2022-09-11T15:04:56.955Z,2.10
2022-09-11T15:10:00.139Z,1.75
2022-09-11T15:15:04.020Z,1.75
2022-09-11T15:20:11.632Z,1.80
2022-09-11T15:25:14.890Z,2.05
2022-09-11T15:30:18.553Z,2.10
2022-09-11T15:40:56.779Z,2.08
2022-09-11T15:46:00.077Z,2.15
2022-09-11T15:51:06.838Z,2.67
2022-09-11T15:56:12.914Z,2.00
2022-09-11T16:01:20.056Z,2.53
2022-09-11T16:06:26.162Z,2.33
2022-09-11T16:11:31.313Z,1.98
2022-09-11T16:16:34.583Z,2.28
2022-09-11T16:21:39.109Z,2.70
2022-09-11T16:26:44.134Z,2.63
2022-09-11T16:31:47.594Z,2.20
2022-09-11T16:36:52.941Z,2.28
2022-09-11T16:41:56.068Z,2.20
2022-09-11T16:46:59.451Z,3.00
2022-09-11T16:52:05.188Z,3.70
2022-09-11T16:57:08.440Z,6.15
2022-09-11T17:02:12.232Z,4.45
2022-09-11T17:07:16.804Z,4.68
2022-09-11T17:12:21.355Z,6.85
2022-09-11T17:17:24.541Z,4.07
2022-09-11T17:22:29.778Z,3.97
2022-09-11T17:27:33.056Z,3.85
2022-09-11T17:32:38.895Z,3.45
2022-09-11T17:37:45.883Z,3.22
2022-09-11T17:42:49.011Z,3.42
2022-09-11T17:47:57.302Z,2.70
2022-09-11T17:53:02.983Z,3.53
2022-09-11T17:58:06.237Z,3.78
2022-09-11T18:03:09.400Z,3.80
2022-09-11T18:08:16.082Z,3.47
2022-09-11T18:13:22.162Z,3.22
2022-09-11T18:18:26.696Z,3.40
2022-09-11T18:23:31.175Z,3.30
2022-09-11T18:28:35.955Z,3.28
2022-09-11T18:33:39.041Z,3.38
2022-09-11T18:38:43.609Z,3.83
2022-09-11T18:43:46.951Z,3.92
2022-09-11T18:48:51.178Z,3.42
2022-09-11T18:53:56.134Z,4.68
2022-09-11T18:59:00.298Z,3.65
2022-09-11T19:04:07.535Z,5.18
2022-09-11T19:09:12.987Z,4.78
2022-09-11T19:14:16.101Z,5.63
2022-09-11T19:19:19.921Z,4.80
2022-09-11T19:24:28.292Z,4.43
2022-09-11T19:29:32.169Z,4.30
2022-09-11T19:34:38.880Z,5.20
2022-09-11T19:39:43.929Z,4.97
2022-09-11T19:44:47.468Z,4.78
2022-09-11T19:49:51.390Z,4.45
2022-09-11T19:54:55.917Z,5.07
2022-09-11T20:00:00.391Z,5.00
2022-09-11T20:05:03.917Z,5.15
2022-09-11T20:10:10.642Z,5.20
2022-09-11T20:15:13.901Z,4.78
2022-09-11T20:20:17.201Z,4.38
2022-09-11T20:25:26.066Z,4.38
2022-09-11T20:30:32.700Z,4.38
2022-09-11T20:35:36.170Z,3.90
2022-09-11T20:40:44.046Z,4.28
2022-09-11T20:45:48.176Z,4.50
2022-09-11T20:50:52.280Z,4.40
2022-09-11T20:56:01.994Z,4.03
2022-09-11T21:01:05.920Z,4.75
2022-09-11T21:06:09.881Z,4.80
2022-09-11T21:11:14.423Z,5.05
2022-09-11T21:16:17.883Z,5.07
2022-09-11T21:21:22.019Z,5.07
2022-09-11T21:26:28.856Z,5.82
2022-09-11T21:31:32.107Z,5.70
2022-09-11T21:36:36.771Z,5.43
2022-09-11T21:41:41.268Z,6.60
2022-09-11T21:46:44.335Z,6.20
2022-09-11T21:51:47.504Z,5.78
2022-09-11T21:56:51.919Z,5.70
2022-09-11T22:01:55.033Z,6.63
2022-09-11T22:06:58.119Z,5.97
2022-09-11T22:12:03.085Z,6.03
2022-09-11T22:17:06.298Z,5.60
2022-09-11T22:22:09.411Z,6.65
2022-09-11T22:27:14.085Z,5.80
2022-09-11T22:32:17.260Z,5.72
2022-09-11T22:37:21.394Z,5.70
2022-09-11T22:42:25.924Z,5.32
2022-09-11T22:47:28.986Z,5.45
2022-09-11T22:52:32.120Z,5.63
2022-09-11T22:57:37.986Z,4.45
2022-09-11T23:02:41.191Z,5.93
2022-09-11T23:07:44.938Z,5.50
2022-09-11T23:12:49.538Z,5.22
2022-09-11T23:17:52.952Z,5.25
2022-09-11T23:22:56.314Z,6.28
2022-09-11T23:28:00.826Z,5.40
2022-09-11T23:33:03.954Z,5.28
2022-09-11T23:38:07.152Z,5.63
2022-09-11T23:43:11.581Z,5.70
2022-09-11T23:48:14.680Z,5.20
2022-09-11T23:53:17.855Z,5.95
2022-09-11T23:58:22.541Z,6.72
